Terminal Aerodrome Forecast
Issued by NWS

Home | Current Version | Previous Version | Graphics & Text | Print | Product List | Glossary On
Versions: 1 2 3 4 5 6 7 8 9 10 11 12 13
888
FTUS45 KGGW 162320
TAFSDY
TAF
KSDY 162320Z 1700/1724 25010KT P6SM BKN110
     FM170900 32008KT P6SM OVC035
     FM171700 27011KT P6SM SCT060=

USA.gov is the U.S. government's official web portal to all federal, state and local government web resources and services.